createdAt,value
2017-12-11T00:00:19.827Z,12.90
2017-12-11T00:02:47.451Z,12.70
2017-12-11T00:05:15.110Z,12.97
2017-12-11T00:07:42.706Z,12.77
2017-12-11T00:10:10.314Z,12.20
2017-12-11T00:12:37.893Z,12.87
2017-12-11T00:15:05.510Z,12.30
2017-12-11T00:17:33.093Z,12.07
2017-12-11T00:20:00.980Z,12.57
2017-12-11T00:22:40.729Z,16.07
2017-12-11T00:25:08.342Z,15.30
2017-12-11T00:27:35.964Z,13.67
2017-12-11T00:30:03.566Z,12.03
2017-12-11T00:32:31.149Z,12.20
2017-12-11T00:34:59.045Z,12.20
2017-12-11T00:37:26.635Z,11.83
2017-12-11T00:39:54.261Z,11.90
2017-12-11T00:42:21.841Z,11.77
2017-12-11T00:44:49.436Z,12.13
2017-12-11T00:47:17.159Z,11.80
2017-12-11T00:49:44.748Z,11.00
2017-12-11T00:52:12.504Z,10.50
2017-12-11T00:54:40.104Z,10.77
2017-12-11T00:57:07.730Z,11.17
2017-12-11T00:59:35.327Z,10.67
2017-12-11T01:02:02.904Z,11.00
2017-12-11T01:04:30.532Z,10.43
2017-12-11T01:06:58.462Z,10.80
2017-12-11T01:09:26.063Z,10.40
2017-12-11T01:11:53.704Z,10.03
2017-12-11T01:14:21.297Z,10.00
2017-12-11T01:16:48.936Z,10.30
2017-12-11T01:19:16.520Z,10.00
2017-12-11T01:21:44.106Z,9.90
2017-12-11T01:24:11.996Z,9.77
2017-12-11T01:26:39.588Z,9.57
2017-12-11T01:29:07.216Z,10.13
2017-12-11T01:31:34.792Z,9.57
2017-12-11T01:34:02.387Z,9.53
2017-12-11T01:36:29.987Z,9.63
2017-12-11T01:38:57.576Z,9.00
2017-12-11T01:41:25.188Z,9.20
2017-12-11T01:43:52.824Z,9.10
2017-12-11T01:46:20.419Z,9.93
2017-12-11T01:48:48.425Z,9.00
2017-12-11T01:51:16.018Z,9.07
2017-12-11T01:53:43.632Z,9.43
2017-12-11T01:56:11.238Z,9.47
2017-12-11T01:58:38.806Z,9.30
2017-12-11T02:01:06.412Z,8.90
2017-12-11T02:03:34.312Z,9.33
2017-12-11T02:06:01.946Z,9.17
2017-12-11T02:08:29.516Z,8.97
2017-12-11T02:10:57.103Z,9.60
2017-12-11T02:13:24.770Z,9.37
2017-12-11T02:15:52.363Z,9.70
2017-12-11T02:18:19.990Z,9.27
2017-12-11T02:20:48.882Z,10.43
2017-12-11T02:23:16.916Z,9.20
2017-12-11T02:25:44.820Z,8.57
2017-12-11T02:28:12.697Z,9.57
2017-12-11T02:30:40.324Z,9.20
2017-12-11T02:33:07.912Z,9.07
2017-12-11T02:35:35.477Z,9.43
2017-12-11T02:38:03.127Z,8.80
2017-12-11T02:40:30.789Z,8.83
2017-12-11T02:42:58.451Z,8.93
2017-12-11T02:45:26.061Z,8.93
2017-12-11T02:47:53.895Z,9.17
2017-12-11T02:50:21.492Z,9.40
2017-12-11T02:52:49.108Z,9.40
2017-12-11T02:55:16.736Z,9.20
2017-12-11T02:57:44.317Z,9.30
2017-12-11T03:00:12.194Z,9.00
2017-12-11T03:02:39.804Z,8.80
2017-12-11T03:05:07.629Z,9.20
2017-12-11T03:07:35.255Z,9.10
2017-12-11T03:10:02.832Z,8.90
2017-12-11T03:12:30.409Z,8.90
2017-12-11T03:14:58.274Z,9.33
2017-12-11T03:17:25.854Z,9.37
2017-12-11T03:19:53.460Z,9.10
2017-12-11T03:22:21.060Z,8.97
2017-12-11T03:24:48.633Z,9.70
2017-12-11T03:27:16.224Z,9.43
2017-12-11T03:29:43.842Z,9.17
2017-12-11T03:32:11.420Z,9.27
2017-12-11T03:34:39.070Z,9.50
2017-12-11T03:37:06.772Z,9.40
2017-12-11T03:39:34.369Z,9.17
2017-12-11T03:42:02.060Z,9.23
2017-12-11T03:44:29.920Z,9.00
2017-12-11T03:46:57.502Z,9.13
2017-12-11T03:49:25.123Z,9.23
2017-12-11T03:51:52.697Z,8.83
2017-12-11T03:54:20.320Z,9.40
2017-12-11T03:56:47.911Z,9.07
2017-12-11T03:59:15.566Z,9.73
2017-12-11T04:01:43.232Z,9.23
2017-12-11T04:04:10.807Z,9.13
2017-12-11T04:06:38.444Z,9.40
2017-12-11T04:09:06.025Z,9.23
2017-12-11T04:11:33.851Z,8.90
2017-12-11T04:14:01.496Z,9.20
2017-12-11T04:16:29.336Z,8.87
2017-12-11T04:18:56.964Z,8.73
2017-12-11T04:21:24.557Z,8.83
2017-12-11T04:23:52.181Z,8.60
2017-12-11T04:26:20.088Z,8.60
2017-12-11T04:28:47.710Z,9.17
2017-12-11T04:31:15.376Z,8.67
2017-12-11T04:33:42.969Z,8.77
2017-12-11T04:36:10.595Z,8.90
2017-12-11T04:38:38.256Z,8.70
2017-12-11T04:41:05.828Z,8.50
2017-12-11T04:43:33.478Z,9.20
2017-12-11T04:46:01.055Z,8.60
2017-12-11T04:48:28.634Z,8.60
2017-12-11T04:50:56.258Z,8.60
2017-12-11T04:53:23.832Z,9.00
2017-12-11T04:55:51.473Z,8.50
2017-12-11T04:58:19.300Z,8.90
2017-12-11T05:00:46.881Z,8.73
2017-12-11T05:03:14.484Z,9.00
2017-12-11T05:05:42.063Z,9.40
2017-12-11T05:08:09.689Z,8.93
2017-12-11T05:10:37.289Z,9.20
2017-12-11T05:13:04.902Z,9.10
2017-12-11T05:15:32.502Z,8.70
2017-12-11T05:18:00.097Z,9.13
2017-12-11T05:20:27.701Z,8.83
2017-12-11T05:22:55.269Z,9.17
2017-12-11T05:25:22.840Z,9.27
2017-12-11T05:27:50.456Z,9.33
2017-12-11T05:30:18.040Z,9.17
2017-12-11T05:32:45.665Z,8.77
2017-12-11T05:35:13.338Z,9.60
2017-12-11T05:37:40.923Z,9.00
2017-12-11T05:40:08.540Z,9.00
2017-12-11T05:42:36.141Z,9.70
2017-12-11T05:47:37.612Z,9.27
2017-12-11T05:50:05.563Z,9.23
2017-12-11T05:52:33.152Z,8.93
2017-12-11T05:55:00.724Z,9.70
2017-12-11T05:57:28.340Z,10.10
2017-12-11T05:59:55.924Z,9.80
2017-12-11T06:02:23.584Z,10.50
2017-12-11T06:04:51.168Z,10.53
2017-12-11T06:07:18.764Z,11.10
2017-12-11T06:09:46.392Z,10.43
2017-12-11T06:12:14.029Z,10.70
2017-12-11T06:14:41.665Z,11.33
2017-12-11T06:17:09.259Z,11.40
2017-12-11T06:19:37.113Z,11.00
2017-12-11T06:22:04.735Z,10.90
2017-12-11T06:24:32.311Z,10.53
2017-12-11T06:26:59.933Z,11.30
2017-12-11T06:29:27.532Z,10.80
2017-12-11T06:31:55.121Z,10.90
2017-12-11T06:34:22.729Z,10.70
2017-12-11T06:36:50.344Z,10.47
2017-12-11T06:39:18.064Z,12.87
2017-12-11T06:41:45.652Z,11.20
2017-12-11T06:44:13.256Z,11.00
2017-12-11T06:46:40.878Z,12.00
2017-12-11T06:49:08.757Z,11.87
2017-12-11T06:51:36.727Z,10.93
2017-12-11T06:54:04.593Z,11.40
2017-12-11T06:56:32.176Z,11.20
2017-12-11T06:58:59.878Z,11.53
2017-12-11T07:01:27.460Z,11.23
2017-12-11T07:03:55.069Z,11.33
2017-12-11T07:06:22.706Z,11.00
2017-12-11T07:08:50.400Z,11.37
2017-12-11T07:11:18.007Z,11.70
2017-12-11T07:13:45.592Z,11.57
2017-12-11T07:16:13.247Z,12.47
2017-12-11T07:18:40.827Z,12.40
2017-12-11T07:21:08.424Z,11.63
2017-12-11T07:23:36.041Z,12.37
2017-12-11T07:26:03.624Z,12.00
2017-12-11T07:28:31.268Z,12.60
2017-12-11T07:30:58.849Z,12.40
2017-12-11T07:33:26.498Z,12.77
2017-12-11T07:35:54.456Z,12.60
2017-12-11T07:38:22.063Z,12.63
2017-12-11T07:40:49.668Z,13.40
2017-12-11T07:43:17.259Z,14.10
2017-12-11T07:45:44.852Z,13.60
2017-12-11T07:48:12.720Z,13.30
2017-12-11T07:50:40.321Z,13.67
2017-12-11T07:53:07.928Z,12.67
2017-12-11T07:55:35.988Z,13.50
2017-12-11T07:58:04.224Z,13.20
2017-12-11T08:00:31.835Z,13.73
2017-12-11T08:02:59.404Z,13.40
2017-12-11T08:05:27.020Z,13.17
2017-12-11T08:07:54.852Z,13.93
2017-12-11T08:10:22.461Z,13.47
2017-12-11T08:12:50.320Z,13.63
2017-12-11T08:15:18.551Z,12.83
2017-12-11T08:17:46.216Z,12.67
2017-12-11T08:20:13.846Z,13.63
2017-12-11T08:22:41.456Z,13.60
2017-12-11T08:25:09.156Z,13.87
2017-12-11T08:27:36.765Z,14.00
2017-12-11T08:30:04.394Z,12.97
2017-12-11T08:32:32.016Z,14.57
2017-12-11T08:34:59.643Z,14.00
2017-12-11T08:37:27.565Z,14.20
2017-12-11T08:39:55.151Z,14.33
2017-12-11T08:42:23.097Z,13.93
2017-12-11T08:44:50.707Z,15.30
2017-12-11T08:47:18.331Z,14.90
2017-12-11T08:49:46.198Z,15.63
2017-12-11T08:52:13.790Z,15.00
2017-12-11T08:54:41.426Z,13.93
2017-12-11T08:57:09.067Z,15.87
2017-12-11T08:59:36.708Z,15.17
2017-12-11T09:02:04.355Z,15.27
2017-12-11T09:04:31.968Z,15.27
2017-12-11T09:06:59.619Z,15.50
2017-12-11T09:09:27.229Z,16.17
2017-12-11T09:11:54.883Z,15.20
2017-12-11T09:14:22.820Z,16.07
2017-12-11T09:16:50.432Z,15.70
2017-12-11T09:19:18.071Z,16.67
2017-12-11T09:21:45.652Z,15.90
2017-12-11T09:24:13.294Z,16.57
2017-12-11T09:26:40.896Z,15.20
2017-12-11T09:29:08.517Z,15.53
2017-12-11T09:31:36.124Z,16.17
2017-12-11T09:34:03.724Z,16.03
2017-12-11T09:36:31.362Z,17.10
2017-12-11T09:38:59.018Z,15.30
2017-12-11T09:41:28.129Z,16.90
2017-12-11T09:43:55.760Z,15.67
2017-12-11T09:46:23.386Z,15.50
2017-12-11T09:48:51.027Z,16.80
2017-12-11T09:51:18.649Z,17.17
2017-12-11T09:53:46.253Z,17.73
2017-12-11T09:56:13.916Z,16.70
2017-12-11T09:58:41.517Z,16.17
2017-12-11T10:01:09.088Z,16.93
2017-12-11T10:03:36.711Z,16.10
2017-12-11T10:06:04.533Z,15.87
2017-12-11T10:08:32.117Z,15.77
2017-12-11T10:10:59.734Z,17.47
2017-12-11T10:13:27.339Z,14.70
2017-12-11T10:15:54.917Z,15.73
2017-12-11T10:18:22.533Z,15.57
2017-12-11T10:20:50.136Z,15.43
2017-12-11T10:23:17.721Z,15.37
2017-12-11T10:25:45.361Z,16.53
2017-12-11T10:28:13.184Z,18.17
2017-12-11T10:30:40.807Z,17.33
2017-12-11T10:33:08.381Z,17.40
2017-12-11T10:35:35.967Z,17.47
2017-12-11T10:38:03.621Z,16.23
2017-12-11T10:40:31.249Z,16.60
2017-12-11T10:42:58.878Z,17.10
2017-12-11T10:45:26.478Z,18.80
2017-12-11T10:47:54.051Z,18.70
2017-12-11T10:50:21.908Z,18.57
2017-12-11T10:52:49.488Z,18.40
2017-12-11T10:55:17.138Z,17.90
2017-12-11T10:57:44.727Z,18.37
2017-12-11T11:00:12.356Z,16.50
2017-12-11T11:02:40.046Z,17.00
2017-12-11T11:05:07.627Z,15.67
2017-12-11T11:07:35.261Z,17.60
2017-12-11T11:10:03.269Z,17.40
2017-12-11T11:12:30.864Z,17.30
2017-12-11T11:14:58.618Z,16.93
2017-12-11T11:17:26.261Z,16.53
2017-12-11T11:19:53.882Z,17.00
2017-12-11T11:22:21.491Z,17.27
2017-12-11T11:24:49.077Z,16.87
2017-12-11T11:27:16.688Z,17.97
2017-12-11T11:29:44.292Z,17.50
2017-12-11T11:32:12.010Z,17.40
2017-12-11T11:34:39.619Z,18.43
2017-12-11T11:37:07.690Z,17.63
2017-12-11T11:39:35.328Z,17.97
2017-12-11T11:42:03.329Z,17.57
2017-12-11T11:44:30.977Z,18.50
2017-12-11T11:46:58.560Z,16.93
2017-12-11T11:49:26.383Z,16.77
2017-12-11T11:51:53.999Z,17.97
2017-12-11T11:54:21.841Z,17.43
2017-12-11T11:56:49.472Z,17.30
2017-12-11T11:59:17.095Z,18.77
2017-12-11T12:01:44.676Z,17.73
2017-12-11T12:04:12.296Z,19.27
2017-12-11T12:06:39.904Z,18.20
2017-12-11T12:09:07.568Z,19.10
2017-12-11T12:11:35.159Z,18.70
2017-12-11T12:14:02.826Z,17.63
2017-12-11T12:16:30.431Z,17.90
2017-12-11T12:18:58.008Z,17.80
2017-12-11T12:21:25.633Z,17.13
2017-12-11T12:23:53.282Z,17.50
2017-12-11T12:26:21.152Z,17.90
2017-12-11T12:28:48.828Z,17.50
2017-12-11T12:31:16.412Z,18.37
2017-12-11T12:33:44.196Z,18.20
2017-12-11T12:36:11.909Z,17.97
2017-12-11T12:38:39.506Z,17.93
2017-12-11T12:41:07.121Z,19.40
2017-12-11T12:43:35.412Z,18.77
2017-12-11T12:46:03.081Z,18.03
2017-12-11T12:48:30.722Z,19.30
2017-12-11T12:50:58.605Z,17.80
2017-12-11T12:53:26.243Z,18.90
2017-12-11T12:55:53.845Z,19.10
2017-12-11T12:58:21.801Z,20.13
2017-12-11T13:00:49.420Z,18.93
2017-12-11T13:03:17.032Z,19.63
2017-12-11T13:05:44.652Z,20.43
2017-12-11T13:08:12.242Z,20.57
2017-12-11T13:10:39.933Z,21.90
2017-12-11T13:13:07.540Z,25.90
2017-12-11T13:15:35.440Z,25.30
2017-12-11T13:18:03.184Z,26.87
2017-12-11T13:20:30.833Z,25.20
2017-12-11T13:22:58.494Z,24.80
2017-12-11T13:25:26.109Z,25.93
2017-12-11T13:27:53.718Z,24.73
2017-12-11T13:30:21.380Z,22.53
2017-12-11T13:32:49.246Z,21.90
2017-12-11T13:35:16.908Z,23.30
2017-12-11T13:37:44.481Z,23.47
2017-12-11T13:40:12.069Z,22.97
2017-12-11T13:42:39.694Z,22.70
2017-12-11T13:45:07.324Z,24.00
2017-12-11T13:47:35.192Z,23.90
2017-12-11T13:50:02.776Z,23.87
2017-12-11T13:52:30.374Z,22.67
2017-12-11T13:54:58.257Z,24.07
2017-12-11T13:57:26.629Z,25.10
2017-12-11T13:59:55.120Z,22.50
2017-12-11T14:02:22.706Z,21.50
2017-12-11T14:04:50.296Z,19.03
2017-12-11T14:07:17.988Z,19.00
2017-12-11T14:09:45.626Z,18.33
2017-12-11T14:12:13.265Z,18.80
2017-12-11T14:14:40.921Z,17.73
2017-12-11T14:17:08.500Z,17.53
2017-12-11T14:19:36.128Z,16.67
2017-12-11T14:22:03.716Z,17.60
2017-12-11T14:24:31.349Z,16.17
2017-12-11T14:26:58.934Z,17.27
2017-12-11T14:29:26.678Z,16.90
2017-12-11T14:31:54.335Z,16.53
2017-12-11T14:34:21.933Z,16.87
2017-12-11T14:36:49.864Z,17.00
2017-12-11T14:39:17.448Z,16.50
2017-12-11T14:41:45.025Z,16.53
2017-12-11T14:44:12.648Z,16.33
2017-12-11T14:46:40.400Z,16.87
2017-12-11T14:49:08.054Z,17.83
2017-12-11T14:51:35.717Z,16.53
2017-12-11T14:54:03.319Z,17.27
2017-12-11T14:56:30.981Z,18.43
2017-12-11T14:58:58.574Z,19.73
2017-12-11T15:01:26.303Z,18.70
2017-12-11T15:03:53.890Z,20.30
2017-12-11T15:06:21.524Z,20.33
2017-12-11T15:08:49.192Z,22.70
2017-12-11T15:11:16.780Z,22.20
2017-12-11T15:13:44.410Z,21.53
2017-12-11T15:16:12.070Z,21.83
2017-12-11T15:18:39.807Z,22.40
2017-12-11T15:21:07.520Z,21.83
2017-12-11T15:23:35.157Z,21.40
2017-12-11T15:26:02.938Z,20.37
2017-12-11T15:28:30.582Z,20.43
2017-12-11T15:30:58.219Z,20.30
2017-12-11T15:33:26.116Z,19.27
2017-12-11T15:35:53.984Z,19.10
2017-12-11T15:38:21.627Z,22.23
2017-12-11T15:40:49.252Z,19.90
2017-12-11T15:43:16.852Z,20.57
2017-12-11T15:45:44.472Z,21.70
2017-12-11T15:48:12.088Z,25.00
2017-12-11T15:50:39.735Z,22.80
2017-12-11T15:53:07.473Z,23.13
2017-12-11T15:55:35.387Z,24.10
2017-12-11T15:58:03.006Z,23.27
2017-12-11T16:00:30.613Z,24.50
2017-12-11T16:02:58.267Z,27.17
2017-12-11T16:05:25.938Z,26.43
2017-12-11T16:07:53.597Z,28.43
2017-12-11T16:10:21.215Z,28.90
2017-12-11T16:12:48.812Z,26.93
2017-12-11T16:15:16.457Z,25.20
2017-12-11T16:17:44.037Z,24.53
2017-12-11T16:20:11.710Z,23.90
2017-12-11T16:22:39.337Z,21.37
2017-12-11T16:25:06.922Z,20.57
2017-12-11T16:27:34.564Z,21.60
2017-12-11T16:30:02.269Z,21.17
2017-12-11T16:32:29.862Z,21.03
2017-12-11T16:34:57.477Z,19.27
2017-12-11T16:37:25.089Z,18.73
2017-12-11T16:39:52.708Z,19.40
2017-12-11T16:42:20.326Z,19.50
2017-12-11T16:44:47.910Z,19.60
2017-12-11T16:47:15.529Z,21.27
2017-12-11T16:49:43.108Z,19.77
2017-12-11T16:52:10.736Z,20.40
2017-12-11T16:54:38.577Z,21.60
2017-12-11T16:57:06.228Z,19.37
2017-12-11T16:59:33.844Z,19.93
2017-12-11T17:02:01.446Z,19.37
2017-12-11T17:04:29.732Z,20.10
2017-12-11T17:06:57.695Z,20.10
2017-12-11T17:09:25.331Z,20.03
2017-12-11T17:11:53.248Z,19.00
2017-12-11T17:14:20.860Z,17.93
2017-12-11T17:16:49.556Z,20.73
2017-12-11T17:19:17.466Z,19.10
2017-12-11T17:21:45.251Z,19.00
2017-12-11T17:24:12.972Z,18.43
2017-12-11T17:26:40.668Z,20.00
2017-12-11T17:29:08.278Z,18.93
2017-12-11T17:31:35.857Z,18.03
2017-12-11T17:34:03.485Z,17.87
2017-12-11T17:36:31.065Z,18.77
2017-12-11T17:38:58.773Z,18.40
2017-12-11T17:41:26.389Z,17.57
2017-12-11T17:43:54.000Z,18.30
2017-12-11T17:46:21.657Z,21.27
2017-12-11T17:48:49.255Z,18.77
2017-12-11T17:51:16.833Z,18.30
2017-12-11T17:53:44.477Z,18.40
2017-12-11T17:56:12.054Z,17.90
2017-12-11T17:58:47.688Z,16.47
2017-12-11T18:01:15.265Z,18.13
2017-12-11T18:03:43.181Z,17.30
2017-12-11T18:06:10.882Z,18.00
2017-12-11T18:08:38.465Z,19.70
2017-12-11T18:11:06.080Z,19.50
2017-12-11T18:13:33.683Z,21.43
2017-12-11T18:16:01.273Z,16.97
2017-12-11T18:18:28.903Z,17.60
2017-12-11T18:20:56.505Z,17.63
2017-12-11T18:23:34.534Z,16.73
2017-12-11T18:26:02.358Z,16.40
2017-12-11T18:28:29.961Z,16.67
2017-12-11T18:30:57.610Z,17.23
2017-12-11T18:33:25.296Z,16.77
2017-12-11T18:35:52.940Z,16.47
2017-12-11T18:38:20.601Z,15.17
2017-12-11T18:40:48.176Z,15.87
2017-12-11T18:43:15.804Z,16.60
2017-12-11T18:45:43.404Z,16.33
2017-12-11T18:48:11.886Z,16.33
2017-12-11T18:50:39.836Z,17.70
2017-12-11T18:53:07.412Z,16.63
2017-12-11T18:55:35.004Z,16.23
2017-12-11T18:58:02.655Z,16.30
2017-12-11T19:00:30.276Z,16.63
2017-12-11T19:02:58.039Z,17.50
2017-12-11T19:05:25.647Z,16.83
2017-12-11T19:07:53.285Z,16.10
2017-12-11T19:10:20.865Z,16.43
2017-12-11T19:12:48.810Z,16.03
2017-12-11T19:15:16.393Z,16.83
2017-12-11T19:17:44.238Z,17.10
2017-12-11T19:20:12.209Z,16.67
2017-12-11T19:22:39.850Z,16.77
2017-12-11T19:25:07.504Z,15.80
2017-12-11T19:27:35.099Z,16.93
2017-12-11T19:30:02.703Z,16.63
2017-12-11T19:32:30.335Z,16.90
2017-12-11T19:34:57.909Z,16.50
2017-12-11T19:37:26.196Z,17.60
2017-12-11T19:39:54.127Z,16.00
2017-12-11T19:42:21.798Z,17.80
2017-12-11T19:44:49.395Z,23.00
2017-12-11T19:47:16.976Z,18.10
2017-12-11T19:49:44.713Z,17.43
2017-12-11T19:52:12.588Z,17.20
2017-12-11T19:54:40.528Z,16.73
2017-12-11T19:57:08.164Z,16.87
2017-12-11T19:59:35.773Z,15.77
2017-12-11T20:02:03.429Z,16.60
2017-12-11T20:04:31.098Z,16.23
2017-12-11T20:06:58.812Z,16.57
2017-12-11T20:09:26.735Z,17.40
2017-12-11T20:11:54.366Z,17.90
2017-12-11T20:14:21.992Z,16.70
2017-12-11T20:16:49.646Z,17.47
2017-12-11T20:19:17.332Z,17.83
2017-12-11T20:21:44.937Z,16.33
2017-12-11T20:24:12.518Z,16.23
2017-12-11T20:26:40.151Z,16.13
2017-12-11T20:29:07.736Z,16.03
2017-12-11T20:31:35.354Z,17.50
2017-12-11T20:34:02.966Z,16.00
2017-12-11T20:36:30.559Z,16.57
2017-12-11T20:38:58.218Z,17.20
2017-12-11T20:41:25.941Z,17.60
2017-12-11T20:43:53.540Z,15.70
2017-12-11T20:46:21.168Z,16.50
2017-12-11T20:48:48.900Z,17.17
2017-12-11T20:51:16.586Z,16.90
2017-12-11T20:53:44.173Z,17.47
2017-12-11T20:56:12.093Z,18.20
2017-12-11T20:58:39.716Z,20.20
2017-12-11T21:01:07.620Z,16.33
2017-12-11T21:03:36.134Z,18.10
2017-12-11T21:06:03.717Z,17.80
2017-12-11T21:08:31.569Z,18.23
2017-12-11T21:10:59.177Z,18.67
2017-12-11T21:13:26.749Z,17.60
2017-12-11T21:15:54.375Z,17.27
2017-12-11T21:18:22.295Z,17.57
2017-12-11T21:20:50.094Z,17.20
2017-12-11T21:23:17.720Z,17.63
2017-12-11T21:25:45.379Z,18.17
2017-12-11T21:28:13.017Z,18.20
2017-12-11T21:30:40.604Z,17.00
2017-12-11T21:33:08.179Z,19.07
2017-12-11T21:35:35.804Z,17.30
2017-12-11T21:38:03.702Z,19.30
2017-12-11T21:40:31.344Z,17.17
2017-12-11T21:42:58.975Z,18.20
2017-12-11T21:45:26.895Z,18.10
2017-12-11T21:47:54.721Z,17.97
2017-12-11T21:50:22.312Z,17.63
2017-12-11T21:52:49.958Z,16.90
2017-12-11T21:55:17.544Z,17.33
2017-12-11T21:57:45.128Z,17.63
2017-12-11T22:00:13.182Z,17.10
2017-12-11T22:02:40.777Z,19.50
2017-12-11T22:05:08.503Z,16.77
2017-12-11T22:07:36.100Z,17.63
2017-12-11T22:10:03.686Z,17.70
2017-12-11T22:12:31.305Z,17.20
2017-12-11T22:14:58.889Z,18.47
2017-12-11T22:17:26.822Z,16.60
2017-12-11T22:19:54.682Z,17.00
2017-12-11T22:22:22.382Z,16.27
2017-12-11T22:24:49.986Z,16.83
2017-12-11T22:27:17.626Z,17.10
2017-12-11T22:29:45.536Z,16.57
2017-12-11T22:32:13.132Z,17.80
2017-12-11T22:34:41.176Z,16.73
2017-12-11T22:37:08.839Z,16.57
2017-12-11T22:39:36.700Z,17.10
2017-12-11T22:42:04.609Z,16.60
2017-12-11T22:44:32.202Z,17.07
2017-12-11T22:46:59.799Z,16.73
2017-12-11T22:49:27.423Z,16.43
2017-12-11T22:51:55.016Z,15.77
2017-12-11T22:54:22.644Z,16.57
2017-12-11T22:56:50.272Z,15.43
2017-12-11T22:59:17.896Z,16.00
2017-12-11T23:01:45.510Z,15.50
2017-12-11T23:04:13.088Z,16.07
2017-12-11T23:06:41.223Z,14.90
2017-12-11T23:09:08.822Z,15.33
2017-12-11T23:11:36.729Z,15.60
2017-12-11T23:14:04.336Z,16.70
2017-12-11T23:16:31.926Z,16.20
2017-12-11T23:18:59.553Z,17.50
2017-12-11T23:21:27.144Z,16.80
2017-12-11T23:23:54.719Z,15.83
2017-12-11T23:26:22.334Z,15.73
2017-12-11T23:28:50.020Z,17.00
2017-12-11T23:31:17.669Z,16.87
2017-12-11T23:33:45.332Z,16.50
2017-12-11T23:36:13.158Z,16.50
2017-12-11T23:38:40.760Z,16.03
2017-12-11T23:41:08.331Z,16.20
2017-12-11T23:43:36.253Z,16.47
2017-12-11T23:46:03.835Z,17.30
2017-12-11T23:48:31.681Z,16.30
2017-12-11T23:50:59.289Z,17.13
2017-12-11T23:53:26.987Z,16.40
2017-12-11T23:55:54.873Z,17.50
2017-12-11T23:58:22.459Z,15.80
